createdAt,value
2023-04-14T00:00:32.027Z,5.50
2023-04-14T00:03:39.001Z,5.72
2023-04-14T00:06:45.324Z,5.85
2023-04-14T00:09:56.888Z,5.60
2023-04-14T00:13:03.258Z,5.85
2023-04-14T00:16:10.037Z,6.62
2023-04-14T00:19:17.960Z,6.37
2023-04-14T00:22:22.595Z,6.75
2023-04-14T00:25:28.061Z,5.47
2023-04-14T00:28:34.013Z,6.40
2023-04-14T00:31:41.744Z,6.35
2023-04-14T00:34:46.587Z,6.83
2023-04-14T00:37:52.989Z,7.10
2023-04-14T00:41:01.567Z,6.85
2023-04-14T00:44:10.674Z,7.53
2023-04-14T00:47:16.668Z,9.28
2023-04-14T00:50:24.160Z,9.70
2023-04-14T00:53:31.113Z,11.70
2023-04-14T00:56:38.023Z,12.40
2023-04-14T00:59:44.666Z,12.68
2023-04-14T01:02:50.314Z,13.43
2023-04-14T01:05:58.550Z,14.38
2023-04-14T01:09:06.170Z,14.50
2023-04-14T01:12:44.369Z,14.45
2023-04-14T01:16:03.899Z,14.65
2023-04-14T01:19:25.983Z,15.78
2023-04-14T01:22:32.158Z,14.98
2023-04-14T01:26:04.499Z,16.75
2023-04-14T01:29:49.808Z,18.25
2023-04-14T01:32:59.520Z,16.57
2023-04-14T01:36:10.815Z,16.07
2023-04-14T01:39:18.373Z,16.60
2023-04-14T01:42:28.222Z,16.87
2023-04-14T01:45:42.167Z,18.12
2023-04-14T01:48:48.024Z,17.90
2023-04-14T01:51:56.529Z,17.62
2023-04-14T01:55:04.966Z,17.92
2023-04-14T01:58:12.937Z,17.55
2023-04-14T02:01:18.917Z,16.97
2023-04-14T02:04:28.593Z,18.82
2023-04-14T02:07:34.427Z,18.87
2023-04-14T02:10:40.014Z,18.55
2023-04-14T02:13:46.824Z,17.37
2023-04-14T02:16:56.465Z,16.50
2023-04-14T02:20:02.554Z,19.02
2023-04-14T02:23:07.904Z,19.55
2023-04-14T02:26:19.862Z,20.48
2023-04-14T02:29:29.160Z,21.12
2023-04-14T02:32:43.665Z,17.80
2023-04-14T02:35:56.814Z,19.32
2023-04-14T02:39:11.880Z,19.65
2023-04-14T02:42:21.847Z,18.90
2023-04-14T02:45:34.410Z,19.63
2023-04-14T02:48:41.332Z,20.48
2023-04-14T02:51:51.188Z,21.97
2023-04-14T02:54:57.279Z,20.95
2023-04-14T02:58:03.884Z,19.17
2023-04-14T03:01:09.687Z,18.48
2023-04-14T03:04:15.860Z,17.70
2023-04-14T03:07:21.996Z,18.52
2023-04-14T03:10:27.795Z,18.32
2023-04-14T03:13:35.884Z,17.52
2023-04-14T03:16:43.263Z,16.60
2023-04-14T03:19:49.090Z,16.97
2023-04-14T03:22:55.146Z,16.27
2023-04-14T03:26:02.580Z,15.75
2023-04-14T03:29:08.995Z,18.12
2023-04-14T03:32:17.658Z,18.27
2023-04-14T03:35:23.937Z,18.57
2023-04-14T03:38:33.029Z,19.15
2023-04-14T03:41:45.414Z,16.27
2023-04-14T03:44:52.367Z,17.32
2023-04-14T03:48:02.085Z,17.80
2023-04-14T03:51:10.379Z,18.23
2023-04-14T03:54:16.771Z,17.30
2023-04-14T03:57:17.993Z,17.42
2023-04-14T04:00:26.014Z,17.48
2023-04-14T04:03:33.264Z,17.48
2023-04-14T04:06:39.837Z,18.23
2023-04-14T04:09:45.824Z,17.15
2023-04-14T04:12:51.179Z,17.05
2023-04-14T04:15:50.896Z,17.12
2023-04-14T04:18:56.871Z,17.12
2023-04-14T04:22:06.699Z,18.98
2023-04-14T04:25:12.907Z,18.40
2023-04-14T04:28:20.573Z,16.50
2023-04-14T04:31:26.533Z,18.10
2023-04-14T04:34:34.213Z,17.25
2023-04-14T04:37:41.996Z,17.32
2023-04-14T04:40:46.117Z,17.40
2023-04-14T04:43:34.222Z,16.80
2023-04-14T04:46:52.141Z,18.42
2023-04-14T04:49:46.064Z,17.03
2023-04-14T04:52:50.857Z,17.73
2023-04-14T04:55:57.848Z,16.95
2023-04-14T04:59:03.986Z,17.30
2023-04-14T05:02:11.732Z,15.50
2023-04-14T05:05:17.142Z,14.47
2023-04-14T05:08:22.241Z,14.33
2023-04-14T05:11:28.894Z,14.98
2023-04-14T05:14:34.603Z,14.90
2023-04-14T05:17:34.147Z,14.35
2023-04-14T05:20:21.196Z,12.70
2023-04-14T05:23:13.782Z,12.78
2023-04-14T05:26:16.232Z,14.07
2023-04-14T05:28:55.140Z,12.98
2023-04-14T05:31:48.065Z,11.73
2023-04-14T05:34:56.673Z,11.55
2023-04-14T05:38:02.692Z,11.80
2023-04-14T05:41:09.569Z,11.95
2023-04-14T05:44:16.583Z,10.70
2023-04-14T05:47:22.438Z,11.90
2023-04-14T05:50:30.720Z,11.08
2023-04-14T05:53:36.407Z,10.95
2023-04-14T05:56:42.546Z,10.38
2023-04-14T05:59:48.543Z,9.93
2023-04-14T06:02:55.375Z,10.23
2023-04-14T06:06:02.032Z,10.53
2023-04-14T06:09:08.208Z,10.95
2023-04-14T06:12:13.971Z,10.58
2023-04-14T06:15:20.723Z,10.23
2023-04-14T06:18:27.491Z,9.73
2023-04-14T06:21:34.092Z,9.75
2023-04-14T06:24:41.753Z,10.28
2023-04-14T06:27:49.518Z,10.00
2023-04-14T06:30:55.453Z,8.90
2023-04-14T06:34:00.891Z,9.63
2023-04-14T06:37:08.504Z,8.65
2023-04-14T06:40:14.265Z,9.33
2023-04-14T06:43:24.663Z,11.03
2023-04-14T06:46:31.686Z,10.72
2023-04-14T06:49:32.087Z,12.43
2023-04-14T06:55:44.909Z,8.08
2023-04-14T06:58:51.503Z,6.42
2023-04-14T07:01:56.778Z,7.12
2023-04-14T07:05:02.540Z,6.08
2023-04-14T07:08:09.535Z,7.03
2023-04-14T07:11:19.476Z,6.67
2023-04-14T07:17:30.174Z,6.40
2023-04-14T07:20:36.436Z,6.12
2023-04-14T07:23:43.886Z,7.22
2023-04-14T07:26:51.398Z,6.90
2023-04-14T07:29:57.933Z,7.28
2023-04-14T07:33:03.809Z,7.12
2023-04-14T07:36:11.486Z,7.60
2023-04-14T07:39:22.507Z,6.62
2023-04-14T07:42:26.590Z,6.30
2023-04-14T07:45:32.696Z,7.53
2023-04-14T07:48:39.141Z,6.37
2023-04-14T07:51:46.762Z,5.92
2023-04-14T07:54:52.752Z,6.33
2023-04-14T07:57:58.008Z,5.85
2023-04-14T08:01:02.961Z,6.62
2023-04-14T08:04:14.003Z,6.97
2023-04-14T08:07:20.780Z,7.62
2023-04-14T08:10:26.724Z,7.90
2023-04-14T08:13:33.415Z,7.10
2023-04-14T08:16:41.923Z,7.87
2023-04-14T08:19:48.408Z,7.80
2023-04-14T08:22:53.945Z,7.62
2023-04-14T08:25:59.740Z,7.30
2023-04-14T08:29:06.336Z,7.20
2023-04-14T08:32:12.474Z,7.17
2023-04-14T08:35:39.096Z,7.33
2023-04-14T08:38:24.817Z,7.37
2023-04-14T08:41:33.720Z,6.50
2023-04-14T08:44:40.210Z,7.60
2023-04-14T08:47:47.062Z,7.20
2023-04-14T08:51:00.825Z,7.95
2023-04-14T08:54:09.892Z,7.53
2023-04-14T08:57:17.826Z,7.92
2023-04-14T09:00:26.043Z,6.25
2023-04-14T09:03:26.698Z,7.45
2023-04-14T09:06:35.276Z,7.58
2023-04-14T09:09:41.448Z,7.28
2023-04-14T09:12:47.089Z,8.45
2023-04-14T09:15:53.447Z,8.43
2023-04-14T09:19:06.740Z,8.20
2023-04-14T09:22:06.692Z,7.90
2023-04-14T09:25:15.526Z,8.98
2023-04-14T09:28:22.254Z,8.23
2023-04-14T09:31:28.372Z,8.30
2023-04-14T09:34:34.465Z,9.38
2023-04-14T09:37:40.616Z,9.50
2023-04-14T09:40:47.883Z,8.10
2023-04-14T09:43:54.389Z,7.65
2023-04-14T09:47:21.622Z,6.67
2023-04-14T09:50:27.875Z,7.67
2023-04-14T09:53:42.706Z,10.15
2023-04-14T09:56:48.186Z,13.15
2023-04-14T09:59:54.179Z,13.10
2023-04-14T10:03:10.602Z,12.80
2023-04-14T10:06:17.296Z,15.20
2023-04-14T10:09:22.284Z,20.23
2023-04-14T10:12:29.435Z,19.48
2023-04-14T10:15:36.018Z,19.12
2023-04-14T10:18:41.781Z,17.57
2023-04-14T10:21:48.026Z,17.15
2023-04-14T10:24:53.441Z,14.93
2023-04-14T10:27:59.100Z,15.05
2023-04-14T10:31:05.555Z,17.70
2023-04-14T10:34:10.674Z,15.28
2023-04-14T10:37:30.311Z,15.50
2023-04-14T10:40:35.889Z,13.18
2023-04-14T10:43:44.218Z,12.75
2023-04-14T10:47:01.193Z,12.23
2023-04-14T10:50:09.105Z,12.15
2023-04-14T10:53:19.113Z,13.75
2023-04-14T10:56:24.573Z,14.63
2023-04-14T10:59:30.405Z,12.23
2023-04-14T11:02:47.327Z,12.28
2023-04-14T11:05:57.665Z,10.85
2023-04-14T11:09:04.798Z,9.35
2023-04-14T11:12:10.926Z,10.08
2023-04-14T11:15:20.975Z,11.00
2023-04-14T11:18:36.721Z,11.63
2023-04-14T11:21:41.469Z,10.38
2023-04-14T11:24:48.235Z,11.85
2023-04-14T11:27:53.737Z,14.85
2023-04-14T11:30:59.583Z,15.85
2023-04-14T11:34:05.745Z,17.20
2023-04-14T11:37:13.033Z,19.00
2023-04-14T11:40:19.563Z,16.32
2023-04-14T11:43:25.908Z,16.42
2023-04-14T11:46:32.916Z,16.35
2023-04-14T11:49:50.113Z,15.25
2023-04-14T11:53:06.053Z,16.23
2023-04-14T11:56:12.319Z,13.58
2023-04-14T11:59:18.328Z,11.50
2023-04-14T12:02:28.057Z,9.60
2023-04-14T12:05:41.016Z,10.08
2023-04-14T12:08:46.804Z,10.15
2023-04-14T12:11:52.892Z,9.88
2023-04-14T12:15:04.467Z,7.87
2023-04-14T12:18:10.932Z,7.65
2023-04-14T12:21:19.341Z,7.33
2023-04-14T12:24:25.148Z,9.03
2023-04-14T12:27:31.466Z,9.18
2023-04-14T12:30:18.112Z,8.43
2023-04-14T12:33:21.251Z,9.58
2023-04-14T12:36:23.867Z,8.43
2023-04-14T12:39:29.801Z,7.00
2023-04-14T12:42:36.873Z,7.47
2023-04-14T12:45:42.687Z,7.10
2023-04-14T12:49:00.095Z,7.53
2023-04-14T12:51:59.804Z,6.97
2023-04-14T12:55:06.689Z,6.85
2023-04-14T12:58:13.126Z,7.00
2023-04-14T13:01:22.651Z,6.97
2023-04-14T13:04:28.777Z,4.72
2023-04-14T13:07:34.341Z,4.22
2023-04-14T13:10:39.855Z,4.55
2023-04-14T13:13:48.668Z,4.17
2023-04-14T13:16:56.481Z,4.35
2023-04-14T13:20:02.969Z,6.10
2023-04-14T13:23:09.510Z,8.58
2023-04-14T13:26:15.465Z,9.93
2023-04-14T13:29:21.426Z,13.45
2023-04-14T13:32:27.741Z,7.55
2023-04-14T13:35:33.472Z,5.08
2023-04-14T13:38:40.152Z,4.15
2023-04-14T13:41:46.627Z,4.30
2023-04-14T13:44:54.126Z,4.72
2023-04-14T13:48:03.478Z,4.60
2023-04-14T13:51:09.124Z,4.22
2023-04-14T13:54:14.482Z,4.22
2023-04-14T13:57:19.935Z,4.78
2023-04-14T14:00:19.773Z,4.05
2023-04-14T14:03:27.002Z,5.08
2023-04-14T14:06:27.504Z,5.28
2023-04-14T14:09:20.487Z,5.53
2023-04-14T14:12:19.718Z,5.67
2023-04-14T14:15:26.969Z,5.92
2023-04-14T14:18:34.189Z,6.15
2023-04-14T14:21:40.874Z,6.10
2023-04-14T14:24:46.352Z,7.25
2023-04-14T14:27:51.935Z,5.67
2023-04-14T14:30:57.600Z,4.50
2023-04-14T14:33:50.448Z,4.07
2023-04-14T14:36:55.474Z,3.98
2023-04-14T14:40:02.077Z,4.17
2023-04-14T14:43:07.064Z,4.12
2023-04-14T14:46:12.862Z,3.90
2023-04-14T14:49:19.449Z,4.47
2023-04-14T14:52:25.166Z,4.05
2023-04-14T14:55:32.189Z,4.15
2023-04-14T14:58:38.080Z,4.83
2023-04-14T15:01:43.534Z,4.37
2023-04-14T15:04:49.508Z,4.08
2023-04-14T15:07:56.326Z,4.30
2023-04-14T15:11:02.371Z,4.22
2023-04-14T15:14:10.756Z,3.50
2023-04-14T15:17:16.121Z,3.50
2023-04-14T15:20:22.397Z,3.25
2023-04-14T15:23:28.118Z,3.27
2023-04-14T15:26:34.381Z,3.25
2023-04-14T15:29:41.075Z,2.80
2023-04-14T15:32:47.662Z,3.02
2023-04-14T15:35:53.485Z,3.05
2023-04-14T15:39:00.088Z,3.42
2023-04-14T15:42:07.749Z,3.30
2023-04-14T15:45:14.018Z,2.65
2023-04-14T15:48:20.520Z,2.60
2023-04-14T15:51:26.135Z,4.85
2023-04-14T15:54:34.788Z,21.50
2023-04-14T15:57:40.989Z,16.02
2023-04-14T16:00:47.272Z,34.30
2023-04-14T16:03:55.359Z,4.83
2023-04-14T16:07:02.398Z,2.90
2023-04-14T16:10:07.669Z,5.72
2023-04-14T16:13:00.978Z,2.20
2023-04-14T16:16:06.479Z,1.40
2023-04-14T16:19:12.783Z,1.50
2023-04-14T16:22:19.356Z,1.60
2023-04-14T16:25:25.029Z,1.57
2023-04-14T16:28:29.692Z,1.30
2023-04-14T16:31:36.138Z,1.40
2023-04-14T16:34:41.657Z,1.40
2023-04-14T16:37:47.744Z,1.47
2023-04-14T16:40:54.337Z,1.55
2023-04-14T16:43:59.260Z,1.62
2023-04-14T16:47:05.379Z,1.70
2023-04-14T16:50:10.946Z,1.65
2023-04-14T16:53:17.126Z,2.33
2023-04-14T16:56:24.951Z,2.20
2023-04-14T16:59:23.851Z,2.00
2023-04-14T17:02:10.598Z,2.00
2023-04-14T17:05:05.233Z,2.17
2023-04-14T17:07:58.216Z,2.08
2023-04-14T17:11:04.165Z,1.90
2023-04-14T17:14:08.975Z,1.80
2023-04-14T17:17:15.171Z,1.90
2023-04-14T17:20:21.676Z,1.27
2023-04-14T17:23:27.147Z,1.77
2023-04-14T17:26:33.017Z,1.50
2023-04-14T17:29:39.537Z,1.40
2023-04-14T17:32:45.377Z,1.75
2023-04-14T17:35:51.175Z,1.60
2023-04-14T17:38:58.290Z,1.77
2023-04-14T17:42:05.041Z,1.90
2023-04-14T17:45:12.583Z,1.85
2023-04-14T17:48:18.460Z,1.67
2023-04-14T17:51:24.303Z,1.50
2023-04-14T17:54:29.853Z,1.67
2023-04-14T17:57:36.350Z,1.30
2023-04-14T18:00:42.916Z,1.70
2023-04-14T18:03:50.985Z,1.50
2023-04-14T18:06:57.575Z,1.72
2023-04-14T18:10:03.462Z,1.62
2023-04-14T18:13:09.147Z,1.47
2023-04-14T18:16:14.575Z,1.30
2023-04-14T18:19:22.969Z,1.52
2023-04-14T18:22:28.610Z,1.85
2023-04-14T18:28:43.559Z,1.60
2023-04-14T18:31:49.077Z,1.70
2023-04-14T18:34:54.867Z,1.72
2023-04-14T18:38:00.719Z,1.57
2023-04-14T18:41:07.822Z,2.10
2023-04-14T18:44:13.013Z,2.87
2023-04-14T18:47:17.815Z,3.02
2023-04-14T18:50:26.678Z,2.50
2023-04-14T18:53:32.463Z,2.20
2023-04-14T18:56:38.974Z,1.77
2023-04-14T18:59:45.604Z,1.60
2023-04-14T19:02:52.429Z,1.82
2023-04-14T19:06:01.991Z,1.67
2023-04-14T19:09:09.385Z,2.10
2023-04-14T19:15:18.137Z,2.35
2023-04-14T19:18:24.628Z,2.35
2023-04-14T19:21:31.095Z,1.82
2023-04-14T19:24:38.431Z,1.70
2023-04-14T19:27:44.921Z,1.98
2023-04-14T19:30:50.857Z,1.95
2023-04-14T19:33:56.434Z,2.10
2023-04-14T19:37:01.629Z,1.95
2023-04-14T19:40:07.203Z,1.80
2023-04-14T19:43:15.031Z,2.02
2023-04-14T19:46:21.451Z,1.90
2023-04-14T19:49:27.361Z,2.08
2023-04-14T19:52:33.358Z,1.85
2023-04-14T19:55:38.844Z,1.80
2023-04-14T19:58:44.313Z,1.50
2023-04-14T20:01:49.299Z,1.82
2023-04-14T20:04:55.296Z,1.62
2023-04-14T20:08:02.146Z,1.70
2023-04-14T20:11:07.857Z,2.00
2023-04-14T20:14:13.527Z,2.00
2023-04-14T20:17:19.312Z,1.85
2023-04-14T20:20:25.753Z,1.40
2023-04-14T20:23:31.764Z,2.12
2023-04-14T20:26:37.426Z,1.80
2023-04-14T20:29:44.086Z,1.60
2023-04-14T20:32:50.785Z,2.15
2023-04-14T20:35:58.633Z,1.95
2023-04-14T20:39:05.029Z,1.95
2023-04-14T20:42:10.696Z,1.92
2023-04-14T20:45:17.685Z,2.12
2023-04-14T20:48:23.456Z,2.35
2023-04-14T20:51:30.116Z,2.40
2023-04-14T20:54:29.899Z,3.02
2023-04-14T20:57:35.802Z,2.50
2023-04-14T21:00:42.046Z,2.42
2023-04-14T21:03:48.675Z,2.50
2023-04-14T21:06:56.151Z,3.30
2023-04-14T21:10:01.775Z,3.00
2023-04-14T21:15:28.763Z,2.50
2023-04-14T21:16:19.855Z,2.40
2023-04-14T21:19:20.623Z,2.77
2023-04-14T21:22:14.325Z,2.37
2023-04-14T21:25:14.275Z,2.40
2023-04-14T21:28:20.781Z,2.50
2023-04-14T21:31:26.488Z,2.62
2023-04-14T21:34:33.685Z,2.85
2023-04-14T21:37:39.420Z,2.22
2023-04-14T21:40:44.632Z,2.42
2023-04-14T21:43:50.408Z,2.50
2023-04-14T21:46:55.842Z,2.20
2023-04-14T21:50:02.801Z,2.67
2023-04-14T21:53:09.822Z,2.27
2023-04-14T21:56:15.717Z,2.58
2023-04-14T21:59:21.136Z,2.10
2023-04-14T22:02:28.429Z,1.80
2023-04-14T22:05:33.852Z,1.90
2023-04-14T22:08:40.576Z,2.20
2023-04-14T22:11:46.802Z,2.15
2023-04-14T22:14:52.183Z,1.67
2023-04-14T22:17:58.704Z,1.90
2023-04-14T22:21:05.662Z,2.30
2023-04-14T22:24:11.242Z,1.87
2023-04-14T22:27:17.219Z,2.02
2023-04-14T22:30:24.722Z,1.90
2023-04-14T22:33:32.189Z,2.35
2023-04-14T22:36:37.792Z,2.10
2023-04-14T22:39:43.920Z,2.22
2023-04-14T22:42:49.689Z,2.40
2023-04-14T22:45:55.374Z,2.15
2023-04-14T22:49:03.514Z,2.37
2023-04-14T22:52:09.868Z,2.65
2023-04-14T22:55:16.197Z,2.80
2023-04-14T22:58:24.216Z,2.50
2023-04-14T23:01:32.571Z,2.60
2023-04-14T23:04:38.179Z,3.33
2023-04-14T23:07:44.816Z,3.08
2023-04-14T23:10:51.209Z,3.22
2023-04-14T23:13:57.662Z,3.05
2023-04-14T23:17:03.333Z,3.33
2023-04-14T23:20:09.493Z,3.58
2023-04-14T23:23:16.465Z,3.50
2023-04-14T23:26:22.134Z,2.95
2023-04-14T23:29:29.326Z,3.50
2023-04-14T23:32:34.820Z,3.50
2023-04-14T23:35:43.125Z,3.52
2023-04-14T23:38:49.701Z,3.27
2023-04-14T23:41:54.659Z,3.83
2023-04-14T23:45:01.118Z,3.10
2023-04-14T23:48:07.114Z,3.65
2023-04-14T23:51:15.771Z,3.30
2023-04-14T23:54:21.382Z,3.65
2023-04-14T23:57:28.050Z,3.20
